Terminal Aerodrome Forecast
Issued by NWS

Home | Current Version | Previous Version | Text Only | Print | Product List | Glossary On
Versions: 1 2 3 4 5 6 7 8 9 10 11 12 13 14
000
FTAK31 PAFA 241449 AAA
TAFAGA
TAF AMD
PAGA 241449Z 2415/2512 12008KT P6SM -RA BKN045 OVC060
     FM241700 13016G26KT 3SM -RA BR BKN025 OVC050
     FM242300 20015G22KT P6SM -RA BKN025 OVC050=

USA.gov is the U.S. government's official web portal to all federal, state and local government web resources and services.